<?xml version="1.0" encoding="UTF-8" standalone="no" ?>
<gpx xmlns="http://www.topografix.com/GPX/1/1" xmlns:xsi="http://www.w3.org/2001/XMLSchema-instance" xsi:schemaLocation="http://www.topografix.com/GPX/1/1 http://www.topografix.com/GPX/1/1/gpx.xsd" version="1.1" creator="VisuGPX - https://www.visugpx.com">
  <metadata>
    <name>Belle-isle-en-terre - 14.04 km - RANDO MUCO 2023</name>
  </metadata>
  <trk>
    <name><![CDATA[Pédestre 14 km 2023-10532208]]></name>
    <extensions>
      <line xmlns="http://www.topografix.com/GPX/gpx_style/0/2">
        <color>00FF00</color>
        <width>4</width>
      </line>
    </extensions>
    <trkseg>
      <trkpt lat="48.54642" lon="-3.39656">
        <ele>90</ele>
        <time>2023-04-13T07:22:02Z</time>
      </trkpt>
      <trkpt lat="48.54616" lon="-3.3958">
        <ele>91</ele>
        <time>2023-04-13T07:23:18Z</time>
      </trkpt>
      <trkpt lat="48.54628" lon="-3.39572">
        <ele>91</ele>
        <time>2023-04-13T07:23:35Z</time>
      </trkpt>
      <trkpt lat="48.54616" lon="-3.3958">
        <ele>91</ele>
        <time>2023-04-13T07:23:53Z</time>
      </trkpt>
      <trkpt lat="48.54599" lon="-3.39582">
        <ele>90</ele>
        <time>2023-04-13T07:24:15Z</time>
      </trkpt>
      <trkpt lat="48.5459" lon="-3.39583">
        <ele>90</ele>
        <time>2023-04-13T07:24:27Z</time>
      </trkpt>
      <trkpt lat="48.54584" lon="-3.39583">
        <ele>90</ele>
        <time>2023-04-13T07:24:35Z</time>
      </trkpt>
      <trkpt lat="48.54582" lon="-3.39568">
        <ele>90</ele>
        <time>2023-04-13T07:24:49Z</time>
      </trkpt>
      <trkpt lat="48.54567" lon="-3.39566">
        <ele>91</ele>
        <time>2023-04-13T07:25:09Z</time>
      </trkpt>
      <trkpt lat="48.54541" lon="-3.39568">
        <ele>92</ele>
        <time>2023-04-13T07:25:44Z</time>
      </trkpt>
      <trkpt lat="48.54533" lon="-3.39571">
        <ele>93</ele>
        <time>2023-04-13T07:25:55Z</time>
      </trkpt>
      <trkpt lat="48.54526" lon="-3.39579">
        <ele>93</ele>
        <time>2023-04-13T07:26:06Z</time>
      </trkpt>
      <trkpt lat="48.54524" lon="-3.39584">
        <ele>93</ele>
        <time>2023-04-13T07:26:12Z</time>
      </trkpt>
      <trkpt lat="48.54513" lon="-3.39587">
        <ele>93</ele>
        <time>2023-04-13T07:26:27Z</time>
      </trkpt>
      <trkpt lat="48.5447" lon="-3.39587">
        <ele>94</ele>
        <time>2023-04-13T07:27:24Z</time>
      </trkpt>
      <trkpt lat="48.54468" lon="-3.39601">
        <ele>94</ele>
        <time>2023-04-13T07:27:37Z</time>
      </trkpt>
      <trkpt lat="48.54464" lon="-3.39603">
        <ele>94</ele>
        <time>2023-04-13T07:27:42Z</time>
      </trkpt>
      <trkpt lat="48.54448" lon="-3.39608">
        <ele>94</ele>
        <time>2023-04-13T07:28:04Z</time>
      </trkpt>
      <trkpt lat="48.54417" lon="-3.39612">
        <ele>94</ele>
        <time>2023-04-13T07:28:46Z</time>
      </trkpt>
      <trkpt lat="48.54372" lon="-3.39576">
        <ele>95</ele>
        <time>2023-04-13T07:29:53Z</time>
      </trkpt>
      <trkpt lat="48.54374" lon="-3.39572">
        <ele>95</ele>
        <time>2023-04-13T07:29:58Z</time>
      </trkpt>
      <trkpt lat="48.54372" lon="-3.39576">
        <ele>95</ele>
        <time>2023-04-13T07:30:02Z</time>
      </trkpt>
      <trkpt lat="48.54311" lon="-3.39582">
        <ele>97</ele>
        <time>2023-04-13T07:31:24Z</time>
      </trkpt>
      <trkpt lat="48.54275" lon="-3.39572">
        <ele>99</ele>
        <time>2023-04-13T07:32:13Z</time>
      </trkpt>
      <trkpt lat="48.54276" lon="-3.39612">
        <ele>98</ele>
        <time>2023-04-13T07:32:48Z</time>
      </trkpt>
      <trkpt lat="48.54284" lon="-3.39665">
        <ele>97</ele>
        <time>2023-04-13T07:33:36Z</time>
      </trkpt>
      <trkpt lat="48.54276" lon="-3.39612">
        <ele>98</ele>
        <time>2023-04-13T07:34:24Z</time>
      </trkpt>
      <trkpt lat="48.54112" lon="-3.39628">
        <ele>106</ele>
        <time>2023-04-13T07:38:03Z</time>
      </trkpt>
      <trkpt lat="48.54092" lon="-3.39632">
        <ele>106</ele>
        <time>2023-04-13T07:38:30Z</time>
      </trkpt>
      <trkpt lat="48.54069" lon="-3.39654">
        <ele>105</ele>
        <time>2023-04-13T07:39:07Z</time>
      </trkpt>
      <trkpt lat="48.54047" lon="-3.39661">
        <ele>105</ele>
        <time>2023-04-13T07:39:37Z</time>
      </trkpt>
      <trkpt lat="48.5401" lon="-3.39686">
        <ele>104</ele>
        <time>2023-04-13T07:40:31Z</time>
      </trkpt>
      <trkpt lat="48.53996" lon="-3.39687">
        <ele>104</ele>
        <time>2023-04-13T07:40:50Z</time>
      </trkpt>
      <trkpt lat="48.53951" lon="-3.39681">
        <ele>104</ele>
        <time>2023-04-13T07:41:50Z</time>
      </trkpt>
      <trkpt lat="48.53932" lon="-3.39671">
        <ele>103</ele>
        <time>2023-04-13T07:42:17Z</time>
      </trkpt>
      <trkpt lat="48.53922" lon="-3.39656">
        <ele>105</ele>
        <time>2023-04-13T07:42:35Z</time>
      </trkpt>
      <trkpt lat="48.5389" lon="-3.39616">
        <ele>106</ele>
        <time>2023-04-13T07:43:31Z</time>
      </trkpt>
      <trkpt lat="48.53873" lon="-3.39583">
        <ele>107</ele>
        <time>2023-04-13T07:44:08Z</time>
      </trkpt>
      <trkpt lat="48.5386" lon="-3.39552">
        <ele>106</ele>
        <time>2023-04-13T07:44:40Z</time>
      </trkpt>
      <trkpt lat="48.53852" lon="-3.39517">
        <ele>105</ele>
        <time>2023-04-13T07:45:13Z</time>
      </trkpt>
      <trkpt lat="48.53848" lon="-3.39486">
        <ele>106</ele>
        <time>2023-04-13T07:45:41Z</time>
      </trkpt>
      <trkpt lat="48.53842" lon="-3.39462">
        <ele>106</ele>
        <time>2023-04-13T07:46:04Z</time>
      </trkpt>
      <trkpt lat="48.53841" lon="-3.39444">
        <ele>106</ele>
        <time>2023-04-13T07:46:20Z</time>
      </trkpt>
      <trkpt lat="48.53835" lon="-3.394">
        <ele>108</ele>
        <time>2023-04-13T07:46:59Z</time>
      </trkpt>
      <trkpt lat="48.53826" lon="-3.39355">
        <ele>112</ele>
        <time>2023-04-13T07:47:41Z</time>
      </trkpt>
      <trkpt lat="48.53802" lon="-3.39268">
        <ele>119</ele>
        <time>2023-04-13T07:49:04Z</time>
      </trkpt>
      <trkpt lat="48.53788" lon="-3.39249">
        <ele>120</ele>
        <time>2023-04-13T07:49:29Z</time>
      </trkpt>
      <trkpt lat="48.53769" lon="-3.39228">
        <ele>119</ele>
        <time>2023-04-13T07:50:01Z</time>
      </trkpt>
      <trkpt lat="48.53722" lon="-3.39202">
        <ele>120</ele>
        <time>2023-04-13T07:51:07Z</time>
      </trkpt>
      <trkpt lat="48.53681" lon="-3.39185">
        <ele>122</ele>
        <time>2023-04-13T07:52:04Z</time>
      </trkpt>
      <trkpt lat="48.53642" lon="-3.39177">
        <ele>124</ele>
        <time>2023-04-13T07:52:57Z</time>
      </trkpt>
      <trkpt lat="48.53582" lon="-3.39172">
        <ele>127</ele>
        <time>2023-04-13T07:54:17Z</time>
      </trkpt>
      <trkpt lat="48.5348" lon="-3.39172">
        <ele>129</ele>
        <time>2023-04-13T07:56:33Z</time>
      </trkpt>
      <trkpt lat="48.53464" lon="-3.39174">
        <ele>127</ele>
        <time>2023-04-13T07:56:54Z</time>
      </trkpt>
      <trkpt lat="48.53415" lon="-3.39175">
        <ele>125</ele>
        <time>2023-04-13T07:58:00Z</time>
      </trkpt>
      <trkpt lat="48.53388" lon="-3.39192">
        <ele>120</ele>
        <time>2023-04-13T07:58:39Z</time>
      </trkpt>
      <trkpt lat="48.53378" lon="-3.39194">
        <ele>119</ele>
        <time>2023-04-13T07:58:52Z</time>
      </trkpt>
      <trkpt lat="48.5337" lon="-3.39198">
        <ele>118</ele>
        <time>2023-04-13T07:59:03Z</time>
      </trkpt>
      <trkpt lat="48.53364" lon="-3.3921">
        <ele>116</ele>
        <time>2023-04-13T07:59:17Z</time>
      </trkpt>
      <trkpt lat="48.5336" lon="-3.39221">
        <ele>114</ele>
        <time>2023-04-13T07:59:28Z</time>
      </trkpt>
      <trkpt lat="48.53351" lon="-3.39229">
        <ele>112</ele>
        <time>2023-04-13T07:59:42Z</time>
      </trkpt>
      <trkpt lat="48.53335" lon="-3.39256">
        <ele>107</ele>
        <time>2023-04-13T08:00:14Z</time>
      </trkpt>
      <trkpt lat="48.53324" lon="-3.39286">
        <ele>105</ele>
        <time>2023-04-13T08:00:44Z</time>
      </trkpt>
      <trkpt lat="48.53318" lon="-3.39294">
        <ele>105</ele>
        <time>2023-04-13T08:00:55Z</time>
      </trkpt>
      <trkpt lat="48.53303" lon="-3.39301">
        <ele>106</ele>
        <time>2023-04-13T08:01:16Z</time>
      </trkpt>
      <trkpt lat="48.53286" lon="-3.39314">
        <ele>105</ele>
        <time>2023-04-13T08:01:41Z</time>
      </trkpt>
      <trkpt lat="48.53241" lon="-3.39326">
        <ele>107</ele>
        <time>2023-04-13T08:02:42Z</time>
      </trkpt>
      <trkpt lat="48.53203" lon="-3.39346">
        <ele>110</ele>
        <time>2023-04-13T08:03:36Z</time>
      </trkpt>
      <trkpt lat="48.53182" lon="-3.39354">
        <ele>111</ele>
        <time>2023-04-13T08:04:05Z</time>
      </trkpt>
      <trkpt lat="48.53167" lon="-3.39363">
        <ele>111</ele>
        <time>2023-04-13T08:04:26Z</time>
      </trkpt>
      <trkpt lat="48.53156" lon="-3.39377">
        <ele>110</ele>
        <time>2023-04-13T08:04:45Z</time>
      </trkpt>
      <trkpt lat="48.53138" lon="-3.39384">
        <ele>110</ele>
        <time>2023-04-13T08:05:10Z</time>
      </trkpt>
      <trkpt lat="48.53074" lon="-3.394">
        <ele>112</ele>
        <time>2023-04-13T08:06:37Z</time>
      </trkpt>
      <trkpt lat="48.53033" lon="-3.39399">
        <ele>112</ele>
        <time>2023-04-13T08:07:32Z</time>
      </trkpt>
      <trkpt lat="48.52987" lon="-3.39406">
        <ele>110</ele>
        <time>2023-04-13T08:08:33Z</time>
      </trkpt>
      <trkpt lat="48.5297" lon="-3.39406">
        <ele>109</ele>
        <time>2023-04-13T08:08:56Z</time>
      </trkpt>
      <trkpt lat="48.52957" lon="-3.39397">
        <ele>110</ele>
        <time>2023-04-13T08:09:15Z</time>
      </trkpt>
      <trkpt lat="48.52949" lon="-3.39381">
        <ele>112</ele>
        <time>2023-04-13T08:09:33Z</time>
      </trkpt>
      <trkpt lat="48.52938" lon="-3.39343">
        <ele>118</ele>
        <time>2023-04-13T08:10:09Z</time>
      </trkpt>
      <trkpt lat="48.52884" lon="-3.39305">
        <ele>115</ele>
        <time>2023-04-13T08:11:29Z</time>
      </trkpt>
      <trkpt lat="48.52869" lon="-3.39299">
        <ele>114</ele>
        <time>2023-04-13T08:11:50Z</time>
      </trkpt>
      <trkpt lat="48.52848" lon="-3.39299">
        <ele>111</ele>
        <time>2023-04-13T08:12:18Z</time>
      </trkpt>
      <trkpt lat="48.52794" lon="-3.39306">
        <ele>107</ele>
        <time>2023-04-13T08:13:30Z</time>
      </trkpt>
      <trkpt lat="48.52748" lon="-3.39306">
        <ele>107</ele>
        <time>2023-04-13T08:14:31Z</time>
      </trkpt>
      <trkpt lat="48.52676" lon="-3.39297">
        <ele>110</ele>
        <time>2023-04-13T08:16:08Z</time>
      </trkpt>
      <trkpt lat="48.52649" lon="-3.39303">
        <ele>112</ele>
        <time>2023-04-13T08:16:44Z</time>
      </trkpt>
      <trkpt lat="48.52642" lon="-3.39307">
        <ele>112</ele>
        <time>2023-04-13T08:16:54Z</time>
      </trkpt>
      <trkpt lat="48.52642" lon="-3.39307">
        <ele>112</ele>
        <time>2023-04-13T08:16:54Z</time>
      </trkpt>
      <trkpt lat="48.52634" lon="-3.39314">
        <ele>112</ele>
        <time>2023-04-13T08:17:07Z</time>
      </trkpt>
      <trkpt lat="48.52611" lon="-3.39346">
        <ele>112</ele>
        <time>2023-04-13T08:17:48Z</time>
      </trkpt>
      <trkpt lat="48.52586" lon="-3.39389">
        <ele>111</ele>
        <time>2023-04-13T08:18:39Z</time>
      </trkpt>
      <trkpt lat="48.52467" lon="-3.39566">
        <ele>110</ele>
        <time>2023-04-13T08:22:22Z</time>
      </trkpt>
      <trkpt lat="48.52454" lon="-3.39578">
        <ele>110</ele>
        <time>2023-04-13T08:22:42Z</time>
      </trkpt>
      <trkpt lat="48.52439" lon="-3.39586">
        <ele>109</ele>
        <time>2023-04-13T08:23:03Z</time>
      </trkpt>
      <trkpt lat="48.52421" lon="-3.39591">
        <ele>109</ele>
        <time>2023-04-13T08:23:28Z</time>
      </trkpt>
      <trkpt lat="48.52412" lon="-3.3959">
        <ele>109</ele>
        <time>2023-04-13T08:23:40Z</time>
      </trkpt>
      <trkpt lat="48.52394" lon="-3.39577">
        <ele>109</ele>
        <time>2023-04-13T08:24:06Z</time>
      </trkpt>
      <trkpt lat="48.52381" lon="-3.39564">
        <ele>110</ele>
        <time>2023-04-13T08:24:27Z</time>
      </trkpt>
      <trkpt lat="48.52321" lon="-3.39461">
        <ele>111</ele>
        <time>2023-04-13T08:26:28Z</time>
      </trkpt>
      <trkpt lat="48.52308" lon="-3.39448">
        <ele>113</ele>
        <time>2023-04-13T08:26:49Z</time>
      </trkpt>
      <trkpt lat="48.52293" lon="-3.39442">
        <ele>113</ele>
        <time>2023-04-13T08:27:10Z</time>
      </trkpt>
      <trkpt lat="48.52267" lon="-3.39448">
        <ele>114</ele>
        <time>2023-04-13T08:27:45Z</time>
      </trkpt>
      <trkpt lat="48.52248" lon="-3.39463">
        <ele>116</ele>
        <time>2023-04-13T08:28:14Z</time>
      </trkpt>
      <trkpt lat="48.52241" lon="-3.39472">
        <ele>117</ele>
        <time>2023-04-13T08:28:26Z</time>
      </trkpt>
      <trkpt lat="48.52213" lon="-3.39414">
        <ele>124</ele>
        <time>2023-04-13T08:29:29Z</time>
      </trkpt>
      <trkpt lat="48.52176" lon="-3.39362">
        <ele>130</ele>
        <time>2023-04-13T08:30:37Z</time>
      </trkpt>
      <trkpt lat="48.52163" lon="-3.39325">
        <ele>130</ele>
        <time>2023-04-13T08:31:14Z</time>
      </trkpt>
      <trkpt lat="48.52142" lon="-3.39331">
        <ele>136</ele>
        <time>2023-04-13T08:31:42Z</time>
      </trkpt>
      <trkpt lat="48.52117" lon="-3.39318">
        <ele>141</ele>
        <time>2023-04-13T08:32:18Z</time>
      </trkpt>
      <trkpt lat="48.52088" lon="-3.39284">
        <ele>146</ele>
        <time>2023-04-13T08:33:07Z</time>
      </trkpt>
      <trkpt lat="48.52073" lon="-3.3926">
        <ele>149</ele>
        <time>2023-04-13T08:33:36Z</time>
      </trkpt>
      <trkpt lat="48.52059" lon="-3.3925">
        <ele>152</ele>
        <time>2023-04-13T08:33:56Z</time>
      </trkpt>
      <trkpt lat="48.52032" lon="-3.39248">
        <ele>159</ele>
        <time>2023-04-13T08:34:33Z</time>
      </trkpt>
      <trkpt lat="48.51992" lon="-3.39254">
        <ele>169</ele>
        <time>2023-04-13T08:35:26Z</time>
      </trkpt>
      <trkpt lat="48.51964" lon="-3.39243">
        <ele>172</ele>
        <time>2023-04-13T08:36:05Z</time>
      </trkpt>
      <trkpt lat="48.51979" lon="-3.39259">
        <ele>170</ele>
        <time>2023-04-13T08:36:29Z</time>
      </trkpt>
      <trkpt lat="48.51964" lon="-3.39243">
        <ele>172</ele>
        <time>2023-04-13T08:36:54Z</time>
      </trkpt>
      <trkpt lat="48.51865" lon="-3.39181">
        <ele>184</ele>
        <time>2023-04-13T08:39:17Z</time>
      </trkpt>
      <trkpt lat="48.51833" lon="-3.39184">
        <ele>185</ele>
        <time>2023-04-13T08:40:00Z</time>
      </trkpt>
      <trkpt lat="48.51803" lon="-3.39191">
        <ele>184</ele>
        <time>2023-04-13T08:40:40Z</time>
      </trkpt>
      <trkpt lat="48.5177" lon="-3.39205">
        <ele>183</ele>
        <time>2023-04-13T08:41:26Z</time>
      </trkpt>
      <trkpt lat="48.51742" lon="-3.39238">
        <ele>183</ele>
        <time>2023-04-13T08:42:13Z</time>
      </trkpt>
      <trkpt lat="48.51733" lon="-3.39265">
        <ele>182</ele>
        <time>2023-04-13T08:42:40Z</time>
      </trkpt>
      <trkpt lat="48.51709" lon="-3.393">
        <ele>181</ele>
        <time>2023-04-13T08:43:25Z</time>
      </trkpt>
      <trkpt lat="48.51688" lon="-3.39326">
        <ele>181</ele>
        <time>2023-04-13T08:44:01Z</time>
      </trkpt>
      <trkpt lat="48.5166" lon="-3.39343">
        <ele>181</ele>
        <time>2023-04-13T08:44:41Z</time>
      </trkpt>
      <trkpt lat="48.51637" lon="-3.39352">
        <ele>180</ele>
        <time>2023-04-13T08:45:13Z</time>
      </trkpt>
      <trkpt lat="48.51635" lon="-3.39425">
        <ele>176</ele>
        <time>2023-04-13T08:46:17Z</time>
      </trkpt>
      <trkpt lat="48.51637" lon="-3.39603">
        <ele>169</ele>
        <time>2023-04-13T08:48:55Z</time>
      </trkpt>
      <trkpt lat="48.51648" lon="-3.3968">
        <ele>167</ele>
        <time>2023-04-13T08:50:04Z</time>
      </trkpt>
      <trkpt lat="48.51656" lon="-3.39705">
        <ele>165</ele>
        <time>2023-04-13T08:50:29Z</time>
      </trkpt>
      <trkpt lat="48.51658" lon="-3.39705">
        <ele>165</ele>
        <time>2023-04-13T08:50:32Z</time>
      </trkpt>
      <trkpt lat="48.51656" lon="-3.39705">
        <ele>165</ele>
        <time>2023-04-13T08:50:34Z</time>
      </trkpt>
      <trkpt lat="48.5162" lon="-3.39723">
        <ele>166</ele>
        <time>2023-04-13T08:51:25Z</time>
      </trkpt>
      <trkpt lat="48.51608" lon="-3.39822">
        <ele>163</ele>
        <time>2023-04-13T08:52:54Z</time>
      </trkpt>
      <trkpt lat="48.51581" lon="-3.39871">
        <ele>165</ele>
        <time>2023-04-13T08:53:50Z</time>
      </trkpt>
      <trkpt lat="48.51579" lon="-3.39897">
        <ele>165</ele>
        <time>2023-04-13T08:54:13Z</time>
      </trkpt>
      <trkpt lat="48.5158" lon="-3.39911">
        <ele>164</ele>
        <time>2023-04-13T08:54:26Z</time>
      </trkpt>
      <trkpt lat="48.51595" lon="-3.3993">
        <ele>164</ele>
        <time>2023-04-13T08:54:52Z</time>
      </trkpt>
      <trkpt lat="48.51605" lon="-3.39938">
        <ele>164</ele>
        <time>2023-04-13T08:55:07Z</time>
      </trkpt>
      <trkpt lat="48.51635" lon="-3.39939">
        <ele>162</ele>
        <time>2023-04-13T08:55:47Z</time>
      </trkpt>
      <trkpt lat="48.51643" lon="-3.39941">
        <ele>162</ele>
        <time>2023-04-13T08:55:58Z</time>
      </trkpt>
      <trkpt lat="48.51701" lon="-3.40001">
        <ele>158</ele>
        <time>2023-04-13T08:57:32Z</time>
      </trkpt>
      <trkpt lat="48.51732" lon="-3.40038">
        <ele>155</ele>
        <time>2023-04-13T08:58:24Z</time>
      </trkpt>
      <trkpt lat="48.51762" lon="-3.40081">
        <ele>154</ele>
        <time>2023-04-13T08:59:20Z</time>
      </trkpt>
      <trkpt lat="48.51807" lon="-3.40131">
        <ele>145</ele>
        <time>2023-04-13T09:00:34Z</time>
      </trkpt>
      <trkpt lat="48.51814" lon="-3.40148">
        <ele>143</ele>
        <time>2023-04-13T09:00:52Z</time>
      </trkpt>
      <trkpt lat="48.51811" lon="-3.40182">
        <ele>142</ele>
        <time>2023-04-13T09:01:22Z</time>
      </trkpt>
      <trkpt lat="48.51807" lon="-3.40202">
        <ele>141</ele>
        <time>2023-04-13T09:01:41Z</time>
      </trkpt>
      <trkpt lat="48.51767" lon="-3.40305">
        <ele>145</ele>
        <time>2023-04-13T09:03:26Z</time>
      </trkpt>
      <trkpt lat="48.51742" lon="-3.40381">
        <ele>149</ele>
        <time>2023-04-13T09:04:41Z</time>
      </trkpt>
      <trkpt lat="48.51738" lon="-3.40419">
        <ele>148</ele>
        <time>2023-04-13T09:05:15Z</time>
      </trkpt>
      <trkpt lat="48.51736" lon="-3.40502">
        <ele>145</ele>
        <time>2023-04-13T09:06:29Z</time>
      </trkpt>
      <trkpt lat="48.51733" lon="-3.40541">
        <ele>143</ele>
        <time>2023-04-13T09:07:03Z</time>
      </trkpt>
      <trkpt lat="48.51721" lon="-3.40593">
        <ele>142</ele>
        <time>2023-04-13T09:07:52Z</time>
      </trkpt>
      <trkpt lat="48.5172" lon="-3.40607">
        <ele>141</ele>
        <time>2023-04-13T09:08:04Z</time>
      </trkpt>
      <trkpt lat="48.51714" lon="-3.40616">
        <ele>142</ele>
        <time>2023-04-13T09:08:16Z</time>
      </trkpt>
      <trkpt lat="48.51709" lon="-3.40618">
        <ele>143</ele>
        <time>2023-04-13T09:08:23Z</time>
      </trkpt>
      <trkpt lat="48.51704" lon="-3.40628">
        <ele>143</ele>
        <time>2023-04-13T09:08:34Z</time>
      </trkpt>
      <trkpt lat="48.51695" lon="-3.40633">
        <ele>145</ele>
        <time>2023-04-13T09:08:46Z</time>
      </trkpt>
      <trkpt lat="48.51687" lon="-3.40643">
        <ele>146</ele>
        <time>2023-04-13T09:09:00Z</time>
      </trkpt>
      <trkpt lat="48.51677" lon="-3.40658">
        <ele>147</ele>
        <time>2023-04-13T09:09:19Z</time>
      </trkpt>
      <trkpt lat="48.51669" lon="-3.40683">
        <ele>146</ele>
        <time>2023-04-13T09:09:44Z</time>
      </trkpt>
      <trkpt lat="48.51665" lon="-3.40691">
        <ele>146</ele>
        <time>2023-04-13T09:09:53Z</time>
      </trkpt>
      <trkpt lat="48.51657" lon="-3.40702">
        <ele>146</ele>
        <time>2023-04-13T09:10:07Z</time>
      </trkpt>
      <trkpt lat="48.51641" lon="-3.40716">
        <ele>147</ele>
        <time>2023-04-13T09:10:32Z</time>
      </trkpt>
      <trkpt lat="48.51645" lon="-3.40741">
        <ele>144</ele>
        <time>2023-04-13T09:10:54Z</time>
      </trkpt>
      <trkpt lat="48.51652" lon="-3.40762">
        <ele>143</ele>
        <time>2023-04-13T09:11:15Z</time>
      </trkpt>
      <trkpt lat="48.5166" lon="-3.40801">
        <ele>140</ele>
        <time>2023-04-13T09:11:51Z</time>
      </trkpt>
      <trkpt lat="48.51662" lon="-3.40797">
        <ele>140</ele>
        <time>2023-04-13T09:11:56Z</time>
      </trkpt>
      <trkpt lat="48.5166" lon="-3.40801">
        <ele>140</ele>
        <time>2023-04-13T09:12:00Z</time>
      </trkpt>
      <trkpt lat="48.51661" lon="-3.4082">
        <ele>139</ele>
        <time>2023-04-13T09:12:17Z</time>
      </trkpt>
      <trkpt lat="48.51654" lon="-3.40823">
        <ele>139</ele>
        <time>2023-04-13T09:12:27Z</time>
      </trkpt>
      <trkpt lat="48.51648" lon="-3.40832">
        <ele>140</ele>
        <time>2023-04-13T09:12:38Z</time>
      </trkpt>
      <trkpt lat="48.51647" lon="-3.40836">
        <ele>140</ele>
        <time>2023-04-13T09:12:42Z</time>
      </trkpt>
      <trkpt lat="48.51645" lon="-3.40855">
        <ele>140</ele>
        <time>2023-04-13T09:12:59Z</time>
      </trkpt>
      <trkpt lat="48.51649" lon="-3.40879">
        <ele>139</ele>
        <time>2023-04-13T09:13:21Z</time>
      </trkpt>
      <trkpt lat="48.51661" lon="-3.40905">
        <ele>138</ele>
        <time>2023-04-13T09:13:49Z</time>
      </trkpt>
      <trkpt lat="48.51661" lon="-3.40909">
        <ele>138</ele>
        <time>2023-04-13T09:13:52Z</time>
      </trkpt>
      <trkpt lat="48.51659" lon="-3.40926">
        <ele>138</ele>
        <time>2023-04-13T09:14:07Z</time>
      </trkpt>
      <trkpt lat="48.51648" lon="-3.40957">
        <ele>138</ele>
        <time>2023-04-13T09:14:39Z</time>
      </trkpt>
      <trkpt lat="48.51597" lon="-3.40911">
        <ele>144</ele>
        <time>2023-04-13T09:15:58Z</time>
      </trkpt>
      <trkpt lat="48.51584" lon="-3.40932">
        <ele>144</ele>
        <time>2023-04-13T09:16:23Z</time>
      </trkpt>
      <trkpt lat="48.51562" lon="-3.40964">
        <ele>145</ele>
        <time>2023-04-13T09:17:04Z</time>
      </trkpt>
      <trkpt lat="48.51554" lon="-3.40981">
        <ele>144</ele>
        <time>2023-04-13T09:17:22Z</time>
      </trkpt>
      <trkpt lat="48.5155" lon="-3.40984">
        <ele>145</ele>
        <time>2023-04-13T09:17:28Z</time>
      </trkpt>
      <trkpt lat="48.51531" lon="-3.41018">
        <ele>145</ele>
        <time>2023-04-13T09:18:08Z</time>
      </trkpt>
      <trkpt lat="48.51511" lon="-3.4107">
        <ele>145</ele>
        <time>2023-04-13T09:19:01Z</time>
      </trkpt>
      <trkpt lat="48.51483" lon="-3.4112">
        <ele>145</ele>
        <time>2023-04-13T09:19:59Z</time>
      </trkpt>
      <trkpt lat="48.51441" lon="-3.4111">
        <ele>147</ele>
        <time>2023-04-13T09:20:55Z</time>
      </trkpt>
      <trkpt lat="48.51424" lon="-3.41126">
        <ele>147</ele>
        <time>2023-04-13T09:21:22Z</time>
      </trkpt>
      <trkpt lat="48.51406" lon="-3.41154">
        <ele>146</ele>
        <time>2023-04-13T09:21:57Z</time>
      </trkpt>
      <trkpt lat="48.51381" lon="-3.41206">
        <ele>144</ele>
        <time>2023-04-13T09:22:53Z</time>
      </trkpt>
      <trkpt lat="48.51363" lon="-3.41222">
        <ele>144</ele>
        <time>2023-04-13T09:23:21Z</time>
      </trkpt>
      <trkpt lat="48.51325" lon="-3.41225">
        <ele>143</ele>
        <time>2023-04-13T09:24:12Z</time>
      </trkpt>
      <trkpt lat="48.51317" lon="-3.41233">
        <ele>143</ele>
        <time>2023-04-13T09:24:25Z</time>
      </trkpt>
      <trkpt lat="48.51305" lon="-3.41252">
        <ele>142</ele>
        <time>2023-04-13T09:24:48Z</time>
      </trkpt>
      <trkpt lat="48.51285" lon="-3.41304">
        <ele>141</ele>
        <time>2023-04-13T09:25:41Z</time>
      </trkpt>
      <trkpt lat="48.51255" lon="-3.41293">
        <ele>141</ele>
        <time>2023-04-13T09:26:23Z</time>
      </trkpt>
      <trkpt lat="48.51226" lon="-3.41279">
        <ele>140</ele>
        <time>2023-04-13T09:27:03Z</time>
      </trkpt>
      <trkpt lat="48.51211" lon="-3.41279">
        <ele>139</ele>
        <time>2023-04-13T09:27:23Z</time>
      </trkpt>
      <trkpt lat="48.51198" lon="-3.41288">
        <ele>138</ele>
        <time>2023-04-13T09:27:42Z</time>
      </trkpt>
      <trkpt lat="48.51172" lon="-3.41353">
        <ele>133</ele>
        <time>2023-04-13T09:28:49Z</time>
      </trkpt>
      <trkpt lat="48.51168" lon="-3.41378">
        <ele>132</ele>
        <time>2023-04-13T09:29:12Z</time>
      </trkpt>
      <trkpt lat="48.51155" lon="-3.41408">
        <ele>130</ele>
        <time>2023-04-13T09:29:44Z</time>
      </trkpt>
      <trkpt lat="48.51198" lon="-3.41483">
        <ele>133</ele>
        <time>2023-04-13T09:31:11Z</time>
      </trkpt>
      <trkpt lat="48.51215" lon="-3.41498">
        <ele>135</ele>
        <time>2023-04-13T09:31:38Z</time>
      </trkpt>
      <trkpt lat="48.51224" lon="-3.41527">
        <ele>135</ele>
        <time>2023-04-13T09:32:06Z</time>
      </trkpt>
      <trkpt lat="48.51236" lon="-3.41557">
        <ele>134</ele>
        <time>2023-04-13T09:32:37Z</time>
      </trkpt>
      <trkpt lat="48.5124" lon="-3.41613">
        <ele>129</ele>
        <time>2023-04-13T09:33:27Z</time>
      </trkpt>
      <trkpt lat="48.51247" lon="-3.41639">
        <ele>127</ele>
        <time>2023-04-13T09:33:52Z</time>
      </trkpt>
      <trkpt lat="48.51266" lon="-3.41675">
        <ele>125</ele>
        <time>2023-04-13T09:34:32Z</time>
      </trkpt>
      <trkpt lat="48.51287" lon="-3.41699">
        <ele>125</ele>
        <time>2023-04-13T09:35:08Z</time>
      </trkpt>
      <trkpt lat="48.51318" lon="-3.41706">
        <ele>124</ele>
        <time>2023-04-13T09:35:49Z</time>
      </trkpt>
      <trkpt lat="48.51333" lon="-3.4169">
        <ele>125</ele>
        <time>2023-04-13T09:36:14Z</time>
      </trkpt>
      <trkpt lat="48.51344" lon="-3.41671">
        <ele>125</ele>
        <time>2023-04-13T09:36:36Z</time>
      </trkpt>
      <trkpt lat="48.51333" lon="-3.4169">
        <ele>125</ele>
        <time>2023-04-13T09:36:58Z</time>
      </trkpt>
      <trkpt lat="48.51318" lon="-3.41706">
        <ele>124</ele>
        <time>2023-04-13T09:37:23Z</time>
      </trkpt>
      <trkpt lat="48.51313" lon="-3.41725">
        <ele>123</ele>
        <time>2023-04-13T09:37:41Z</time>
      </trkpt>
      <trkpt lat="48.5131" lon="-3.41747">
        <ele>122</ele>
        <time>2023-04-13T09:38:01Z</time>
      </trkpt>
      <trkpt lat="48.51309" lon="-3.41755">
        <ele>122</ele>
        <time>2023-04-13T09:38:08Z</time>
      </trkpt>
      <trkpt lat="48.51309" lon="-3.41758">
        <ele>122</ele>
        <time>2023-04-13T09:38:11Z</time>
      </trkpt>
      <trkpt lat="48.51308" lon="-3.41783">
        <ele>124</ele>
        <time>2023-04-13T09:38:33Z</time>
      </trkpt>
      <trkpt lat="48.51343" lon="-3.41813">
        <ele>125</ele>
        <time>2023-04-13T09:39:27Z</time>
      </trkpt>
      <trkpt lat="48.51365" lon="-3.41816">
        <ele>126</ele>
        <time>2023-04-13T09:39:56Z</time>
      </trkpt>
      <trkpt lat="48.51417" lon="-3.41812">
        <ele>127</ele>
        <time>2023-04-13T09:41:06Z</time>
      </trkpt>
      <trkpt lat="48.51441" lon="-3.41795">
        <ele>128</ele>
        <time>2023-04-13T09:41:41Z</time>
      </trkpt>
      <trkpt lat="48.51483" lon="-3.41743">
        <ele>130</ele>
        <time>2023-04-13T09:42:53Z</time>
      </trkpt>
      <trkpt lat="48.51476" lon="-3.41758">
        <ele>130</ele>
        <time>2023-04-13T09:43:10Z</time>
      </trkpt>
      <trkpt lat="48.51499" lon="-3.41702">
        <ele>128</ele>
        <time>2023-04-13T09:44:08Z</time>
      </trkpt>
      <trkpt lat="48.51517" lon="-3.41647">
        <ele>122</ele>
        <time>2023-04-13T09:45:02Z</time>
      </trkpt>
      <trkpt lat="48.51519" lon="-3.41643">
        <ele>121</ele>
        <time>2023-04-13T09:45:07Z</time>
      </trkpt>
      <trkpt lat="48.51528" lon="-3.41636">
        <ele>120</ele>
        <time>2023-04-13T09:45:20Z</time>
      </trkpt>
      <trkpt lat="48.51538" lon="-3.41635">
        <ele>120</ele>
        <time>2023-04-13T09:45:33Z</time>
      </trkpt>
      <trkpt lat="48.51574" lon="-3.41672">
        <ele>120</ele>
        <time>2023-04-13T09:46:32Z</time>
      </trkpt>
      <trkpt lat="48.51618" lon="-3.41726">
        <ele>119</ele>
        <time>2023-04-13T09:47:47Z</time>
      </trkpt>
      <trkpt lat="48.5165" lon="-3.41779">
        <ele>113</ele>
        <time>2023-04-13T09:48:51Z</time>
      </trkpt>
      <trkpt lat="48.51695" lon="-3.41827">
        <ele>109</ele>
        <time>2023-04-13T09:50:04Z</time>
      </trkpt>
      <trkpt lat="48.51735" lon="-3.41862">
        <ele>109</ele>
        <time>2023-04-13T09:51:06Z</time>
      </trkpt>
      <trkpt lat="48.51759" lon="-3.41883">
        <ele>111</ele>
        <time>2023-04-13T09:51:43Z</time>
      </trkpt>
      <trkpt lat="48.51775" lon="-3.41889">
        <ele>113</ele>
        <time>2023-04-13T09:52:05Z</time>
      </trkpt>
      <trkpt lat="48.51772" lon="-3.41895">
        <ele>113</ele>
        <time>2023-04-13T09:52:11Z</time>
      </trkpt>
      <trkpt lat="48.51775" lon="-3.41889">
        <ele>113</ele>
        <time>2023-04-13T09:52:18Z</time>
      </trkpt>
      <trkpt lat="48.51795" lon="-3.41888">
        <ele>115</ele>
        <time>2023-04-13T09:52:45Z</time>
      </trkpt>
      <trkpt lat="48.51872" lon="-3.41841">
        <ele>118</ele>
        <time>2023-04-13T09:54:36Z</time>
      </trkpt>
      <trkpt lat="48.51929" lon="-3.41792">
        <ele>120</ele>
        <time>2023-04-13T09:56:03Z</time>
      </trkpt>
      <trkpt lat="48.51967" lon="-3.4177">
        <ele>126</ele>
        <time>2023-04-13T09:56:58Z</time>
      </trkpt>
      <trkpt lat="48.51984" lon="-3.41745">
        <ele>127</ele>
        <time>2023-04-13T09:57:29Z</time>
      </trkpt>
      <trkpt lat="48.51993" lon="-3.41715">
        <ele>125</ele>
        <time>2023-04-13T09:57:58Z</time>
      </trkpt>
      <trkpt lat="48.52009" lon="-3.41637">
        <ele>120</ele>
        <time>2023-04-13T09:59:10Z</time>
      </trkpt>
      <trkpt lat="48.52017" lon="-3.41585">
        <ele>117</ele>
        <time>2023-04-13T09:59:58Z</time>
      </trkpt>
      <trkpt lat="48.52038" lon="-3.41514">
        <ele>119</ele>
        <time>2023-04-13T10:01:06Z</time>
      </trkpt>
      <trkpt lat="48.52051" lon="-3.41457">
        <ele>120</ele>
        <time>2023-04-13T10:02:00Z</time>
      </trkpt>
      <trkpt lat="48.52056" lon="-3.41401">
        <ele>119</ele>
        <time>2023-04-13T10:02:50Z</time>
      </trkpt>
      <trkpt lat="48.52051" lon="-3.41322">
        <ele>115</ele>
        <time>2023-04-13T10:04:00Z</time>
      </trkpt>
      <trkpt lat="48.52053" lon="-3.41318">
        <ele>115</ele>
        <time>2023-04-13T10:04:04Z</time>
      </trkpt>
      <trkpt lat="48.52065" lon="-3.41298">
        <ele>117</ele>
        <time>2023-04-13T10:04:28Z</time>
      </trkpt>
      <trkpt lat="48.52093" lon="-3.41288">
        <ele>121</ele>
        <time>2023-04-13T10:05:06Z</time>
      </trkpt>
      <trkpt lat="48.52127" lon="-3.4128">
        <ele>126</ele>
        <time>2023-04-13T10:05:52Z</time>
      </trkpt>
      <trkpt lat="48.52135" lon="-3.41264">
        <ele>127</ele>
        <time>2023-04-13T10:06:10Z</time>
      </trkpt>
      <trkpt lat="48.52134" lon="-3.41248">
        <ele>127</ele>
        <time>2023-04-13T10:06:24Z</time>
      </trkpt>
      <trkpt lat="48.52108" lon="-3.41243">
        <ele>123</ele>
        <time>2023-04-13T10:06:59Z</time>
      </trkpt>
      <trkpt lat="48.52068" lon="-3.4124">
        <ele>117</ele>
        <time>2023-04-13T10:07:53Z</time>
      </trkpt>
      <trkpt lat="48.52049" lon="-3.41215">
        <ele>114</ele>
        <time>2023-04-13T10:08:26Z</time>
      </trkpt>
      <trkpt lat="48.52042" lon="-3.41166">
        <ele>114</ele>
        <time>2023-04-13T10:09:11Z</time>
      </trkpt>
      <trkpt lat="48.52038" lon="-3.41081">
        <ele>116</ele>
        <time>2023-04-13T10:10:26Z</time>
      </trkpt>
      <trkpt lat="48.52037" lon="-3.41014">
        <ele>117</ele>
        <time>2023-04-13T10:11:25Z</time>
      </trkpt>
      <trkpt lat="48.52031" lon="-3.40939">
        <ele>118</ele>
        <time>2023-04-13T10:12:32Z</time>
      </trkpt>
      <trkpt lat="48.5203" lon="-3.40891">
        <ele>120</ele>
        <time>2023-04-13T10:13:14Z</time>
      </trkpt>
      <trkpt lat="48.52023" lon="-3.40871">
        <ele>119</ele>
        <time>2023-04-13T10:13:34Z</time>
      </trkpt>
      <trkpt lat="48.52018" lon="-3.40838">
        <ele>120</ele>
        <time>2023-04-13T10:14:04Z</time>
      </trkpt>
      <trkpt lat="48.52009" lon="-3.40801">
        <ele>120</ele>
        <time>2023-04-13T10:14:39Z</time>
      </trkpt>
      <trkpt lat="48.51997" lon="-3.40761">
        <ele>120</ele>
        <time>2023-04-13T10:15:18Z</time>
      </trkpt>
      <trkpt lat="48.51963" lon="-3.40704">
        <ele>118</ele>
        <time>2023-04-13T10:16:26Z</time>
      </trkpt>
      <trkpt lat="48.51912" lon="-3.40593">
        <ele>112</ele>
        <time>2023-04-13T10:18:25Z</time>
      </trkpt>
      <trkpt lat="48.51891" lon="-3.40567">
        <ele>112</ele>
        <time>2023-04-13T10:19:01Z</time>
      </trkpt>
      <trkpt lat="48.51873" lon="-3.40522">
        <ele>112</ele>
        <time>2023-04-13T10:19:48Z</time>
      </trkpt>
      <trkpt lat="48.51861" lon="-3.40477">
        <ele>112</ele>
        <time>2023-04-13T10:20:31Z</time>
      </trkpt>
      <trkpt lat="48.51857" lon="-3.40451">
        <ele>113</ele>
        <time>2023-04-13T10:20:54Z</time>
      </trkpt>
      <trkpt lat="48.51857" lon="-3.40431">
        <ele>113</ele>
        <time>2023-04-13T10:21:12Z</time>
      </trkpt>
      <trkpt lat="48.5187" lon="-3.40406">
        <ele>114</ele>
        <time>2023-04-13T10:21:40Z</time>
      </trkpt>
      <trkpt lat="48.51889" lon="-3.40372">
        <ele>114</ele>
        <time>2023-04-13T10:22:19Z</time>
      </trkpt>
      <trkpt lat="48.51901" lon="-3.40357">
        <ele>113</ele>
        <time>2023-04-13T10:22:40Z</time>
      </trkpt>
      <trkpt lat="48.51969" lon="-3.40363">
        <ele>119</ele>
        <time>2023-04-13T10:24:11Z</time>
      </trkpt>
      <trkpt lat="48.51984" lon="-3.40359">
        <ele>120</ele>
        <time>2023-04-13T10:24:31Z</time>
      </trkpt>
      <trkpt lat="48.52023" lon="-3.40337">
        <ele>122</ele>
        <time>2023-04-13T10:25:27Z</time>
      </trkpt>
      <trkpt lat="48.52035" lon="-3.40338">
        <ele>123</ele>
        <time>2023-04-13T10:25:43Z</time>
      </trkpt>
      <trkpt lat="48.52048" lon="-3.4034">
        <ele>123</ele>
        <time>2023-04-13T10:26:01Z</time>
      </trkpt>
      <trkpt lat="48.52107" lon="-3.4036">
        <ele>127</ele>
        <time>2023-04-13T10:27:21Z</time>
      </trkpt>
      <trkpt lat="48.52139" lon="-3.40376">
        <ele>129</ele>
        <time>2023-04-13T10:28:06Z</time>
      </trkpt>
      <trkpt lat="48.52162" lon="-3.40391">
        <ele>131</ele>
        <time>2023-04-13T10:28:40Z</time>
      </trkpt>
      <trkpt lat="48.52167" lon="-3.40389">
        <ele>131</ele>
        <time>2023-04-13T10:28:47Z</time>
      </trkpt>
      <trkpt lat="48.52162" lon="-3.40391">
        <ele>131</ele>
        <time>2023-04-13T10:28:53Z</time>
      </trkpt>
      <trkpt lat="48.52162" lon="-3.40413">
        <ele>133</ele>
        <time>2023-04-13T10:29:13Z</time>
      </trkpt>
      <trkpt lat="48.52166" lon="-3.40452">
        <ele>136</ele>
        <time>2023-04-13T10:29:48Z</time>
      </trkpt>
      <trkpt lat="48.52167" lon="-3.40553">
        <ele>147</ele>
        <time>2023-04-13T10:31:17Z</time>
      </trkpt>
      <trkpt lat="48.52184" lon="-3.40691">
        <ele>156</ele>
        <time>2023-04-13T10:33:21Z</time>
      </trkpt>
      <trkpt lat="48.52185" lon="-3.40756">
        <ele>159</ele>
        <time>2023-04-13T10:34:19Z</time>
      </trkpt>
      <trkpt lat="48.52184" lon="-3.40786">
        <ele>158</ele>
        <time>2023-04-13T10:34:45Z</time>
      </trkpt>
      <trkpt lat="48.52185" lon="-3.40815">
        <ele>158</ele>
        <time>2023-04-13T10:35:11Z</time>
      </trkpt>
      <trkpt lat="48.52192" lon="-3.40868">
        <ele>158</ele>
        <time>2023-04-13T10:35:59Z</time>
      </trkpt>
      <trkpt lat="48.52198" lon="-3.4096">
        <ele>155</ele>
        <time>2023-04-13T10:37:20Z</time>
      </trkpt>
      <trkpt lat="48.52201" lon="-3.40968">
        <ele>155</ele>
        <time>2023-04-13T10:37:28Z</time>
      </trkpt>
      <trkpt lat="48.52225" lon="-3.40985">
        <ele>157</ele>
        <time>2023-04-13T10:38:04Z</time>
      </trkpt>
      <trkpt lat="48.52247" lon="-3.40991">
        <ele>159</ele>
        <time>2023-04-13T10:38:34Z</time>
      </trkpt>
      <trkpt lat="48.52255" lon="-3.4101">
        <ele>158</ele>
        <time>2023-04-13T10:38:53Z</time>
      </trkpt>
      <trkpt lat="48.52264" lon="-3.41021">
        <ele>156</ele>
        <time>2023-04-13T10:39:09Z</time>
      </trkpt>
      <trkpt lat="48.52278" lon="-3.41033">
        <ele>155</ele>
        <time>2023-04-13T10:39:30Z</time>
      </trkpt>
      <trkpt lat="48.52291" lon="-3.41047">
        <ele>154</ele>
        <time>2023-04-13T10:39:52Z</time>
      </trkpt>
      <trkpt lat="48.52298" lon="-3.4106">
        <ele>153</ele>
        <time>2023-04-13T10:40:07Z</time>
      </trkpt>
      <trkpt lat="48.52309" lon="-3.41073">
        <ele>152</ele>
        <time>2023-04-13T10:40:25Z</time>
      </trkpt>
      <trkpt lat="48.5232" lon="-3.41078">
        <ele>153</ele>
        <time>2023-04-13T10:40:41Z</time>
      </trkpt>
      <trkpt lat="48.52338" lon="-3.41078">
        <ele>153</ele>
        <time>2023-04-13T10:41:05Z</time>
      </trkpt>
      <trkpt lat="48.52347" lon="-3.41074">
        <ele>154</ele>
        <time>2023-04-13T10:41:17Z</time>
      </trkpt>
      <trkpt lat="48.52362" lon="-3.41063">
        <ele>155</ele>
        <time>2023-04-13T10:41:39Z</time>
      </trkpt>
      <trkpt lat="48.52377" lon="-3.41048">
        <ele>156</ele>
        <time>2023-04-13T10:42:03Z</time>
      </trkpt>
      <trkpt lat="48.52404" lon="-3.41056">
        <ele>156</ele>
        <time>2023-04-13T10:42:40Z</time>
      </trkpt>
      <trkpt lat="48.52514" lon="-3.411">
        <ele>160</ele>
        <time>2023-04-13T10:45:12Z</time>
      </trkpt>
      <trkpt lat="48.52546" lon="-3.41105">
        <ele>161</ele>
        <time>2023-04-13T10:45:55Z</time>
      </trkpt>
      <trkpt lat="48.52602" lon="-3.41109">
        <ele>164</ele>
        <time>2023-04-13T10:47:10Z</time>
      </trkpt>
      <trkpt lat="48.52618" lon="-3.41194">
        <ele>164</ele>
        <time>2023-04-13T10:48:28Z</time>
      </trkpt>
      <trkpt lat="48.52609" lon="-3.41287">
        <ele>161</ele>
        <time>2023-04-13T10:49:51Z</time>
      </trkpt>
      <trkpt lat="48.52601" lon="-3.41339">
        <ele>160</ele>
        <time>2023-04-13T10:50:38Z</time>
      </trkpt>
      <trkpt lat="48.52587" lon="-3.41381">
        <ele>159</ele>
        <time>2023-04-13T10:51:20Z</time>
      </trkpt>
      <trkpt lat="48.52578" lon="-3.41417">
        <ele>159</ele>
        <time>2023-04-13T10:51:54Z</time>
      </trkpt>
      <trkpt lat="48.5257" lon="-3.41514">
        <ele>159</ele>
        <time>2023-04-13T10:53:20Z</time>
      </trkpt>
      <trkpt lat="48.52598" lon="-3.41525">
        <ele>161</ele>
        <time>2023-04-13T10:53:59Z</time>
      </trkpt>
      <trkpt lat="48.52777" lon="-3.41576">
        <ele>170</ele>
        <time>2023-04-13T10:58:02Z</time>
      </trkpt>
      <trkpt lat="48.52855" lon="-3.41602">
        <ele>172</ele>
        <time>2023-04-13T10:59:48Z</time>
      </trkpt>
      <trkpt lat="48.52933" lon="-3.41659">
        <ele>174</ele>
        <time>2023-04-13T11:01:44Z</time>
      </trkpt>
      <trkpt lat="48.52944" lon="-3.41665">
        <ele>174</ele>
        <time>2023-04-13T11:01:59Z</time>
      </trkpt>
      <trkpt lat="48.52945" lon="-3.41653">
        <ele>174</ele>
        <time>2023-04-13T11:02:10Z</time>
      </trkpt>
      <trkpt lat="48.52944" lon="-3.41665">
        <ele>174</ele>
        <time>2023-04-13T11:02:21Z</time>
      </trkpt>
      <trkpt lat="48.52952" lon="-3.41671">
        <ele>173</ele>
        <time>2023-04-13T11:02:33Z</time>
      </trkpt>
      <trkpt lat="48.52973" lon="-3.41674">
        <ele>173</ele>
        <time>2023-04-13T11:03:01Z</time>
      </trkpt>
      <trkpt lat="48.53004" lon="-3.41671">
        <ele>173</ele>
        <time>2023-04-13T11:03:42Z</time>
      </trkpt>
      <trkpt lat="48.53006" lon="-3.41641">
        <ele>173</ele>
        <time>2023-04-13T11:04:09Z</time>
      </trkpt>
      <trkpt lat="48.53009" lon="-3.41549">
        <ele>172</ele>
        <time>2023-04-13T11:05:30Z</time>
      </trkpt>
      <trkpt lat="48.53053" lon="-3.41373">
        <ele>171</ele>
        <time>2023-04-13T11:08:17Z</time>
      </trkpt>
      <trkpt lat="48.53056" lon="-3.41344">
        <ele>171</ele>
        <time>2023-04-13T11:08:43Z</time>
      </trkpt>
      <trkpt lat="48.53055" lon="-3.41332">
        <ele>171</ele>
        <time>2023-04-13T11:08:53Z</time>
      </trkpt>
      <trkpt lat="48.53059" lon="-3.41321">
        <ele>171</ele>
        <time>2023-04-13T11:09:04Z</time>
      </trkpt>
      <trkpt lat="48.53059" lon="-3.41309">
        <ele>171</ele>
        <time>2023-04-13T11:09:15Z</time>
      </trkpt>
      <trkpt lat="48.53051" lon="-3.41274">
        <ele>171</ele>
        <time>2023-04-13T11:09:48Z</time>
      </trkpt>
      <trkpt lat="48.53045" lon="-3.41215">
        <ele>170</ele>
        <time>2023-04-13T11:10:40Z</time>
      </trkpt>
      <trkpt lat="48.53048" lon="-3.41197">
        <ele>170</ele>
        <time>2023-04-13T11:10:57Z</time>
      </trkpt>
      <trkpt lat="48.53081" lon="-3.41152">
        <ele>170</ele>
        <time>2023-04-13T11:11:56Z</time>
      </trkpt>
      <trkpt lat="48.53093" lon="-3.41093">
        <ele>170</ele>
        <time>2023-04-13T11:12:51Z</time>
      </trkpt>
      <trkpt lat="48.53105" lon="-3.41055">
        <ele>171</ele>
        <time>2023-04-13T11:13:28Z</time>
      </trkpt>
      <trkpt lat="48.53139" lon="-3.40959">
        <ele>171</ele>
        <time>2023-04-13T11:15:04Z</time>
      </trkpt>
      <trkpt lat="48.53161" lon="-3.40904">
        <ele>172</ele>
        <time>2023-04-13T11:16:01Z</time>
      </trkpt>
      <trkpt lat="48.53178" lon="-3.40868">
        <ele>171</ele>
        <time>2023-04-13T11:16:40Z</time>
      </trkpt>
      <trkpt lat="48.53203" lon="-3.40768">
        <ele>170</ele>
        <time>2023-04-13T11:18:14Z</time>
      </trkpt>
      <trkpt lat="48.5323" lon="-3.40715">
        <ele>169</ele>
        <time>2023-04-13T11:19:14Z</time>
      </trkpt>
      <trkpt lat="48.53244" lon="-3.40671">
        <ele>167</ele>
        <time>2023-04-13T11:19:57Z</time>
      </trkpt>
      <trkpt lat="48.53285" lon="-3.40603">
        <ele>164</ele>
        <time>2023-04-13T11:21:18Z</time>
      </trkpt>
      <trkpt lat="48.53302" lon="-3.4058">
        <ele>164</ele>
        <time>2023-04-13T11:21:48Z</time>
      </trkpt>
      <trkpt lat="48.53321" lon="-3.4053">
        <ele>162</ele>
        <time>2023-04-13T11:22:39Z</time>
      </trkpt>
      <trkpt lat="48.53366" lon="-3.40445">
        <ele>159</ele>
        <time>2023-04-13T11:24:16Z</time>
      </trkpt>
      <trkpt lat="48.53383" lon="-3.40403">
        <ele>157</ele>
        <time>2023-04-13T11:24:59Z</time>
      </trkpt>
      <trkpt lat="48.53403" lon="-3.40371">
        <ele>155</ele>
        <time>2023-04-13T11:25:38Z</time>
      </trkpt>
      <trkpt lat="48.53432" lon="-3.40343">
        <ele>154</ele>
        <time>2023-04-13T11:26:24Z</time>
      </trkpt>
      <trkpt lat="48.53485" lon="-3.40269">
        <ele>151</ele>
        <time>2023-04-13T11:28:00Z</time>
      </trkpt>
      <trkpt lat="48.53486" lon="-3.40234">
        <ele>150</ele>
        <time>2023-04-13T11:28:31Z</time>
      </trkpt>
      <trkpt lat="48.53467" lon="-3.40224">
        <ele>150</ele>
        <time>2023-04-13T11:28:58Z</time>
      </trkpt>
      <trkpt lat="48.53486" lon="-3.40234">
        <ele>150</ele>
        <time>2023-04-13T11:29:25Z</time>
      </trkpt>
      <trkpt lat="48.5354" lon="-3.40151">
        <ele>147</ele>
        <time>2023-04-13T11:31:08Z</time>
      </trkpt>
      <trkpt lat="48.53578" lon="-3.40098">
        <ele>144</ele>
        <time>2023-04-13T11:32:17Z</time>
      </trkpt>
      <trkpt lat="48.53585" lon="-3.40093">
        <ele>144</ele>
        <time>2023-04-13T11:32:27Z</time>
      </trkpt>
      <trkpt lat="48.53591" lon="-3.40091">
        <ele>144</ele>
        <time>2023-04-13T11:32:35Z</time>
      </trkpt>
      <trkpt lat="48.53593" lon="-3.40078">
        <ele>143</ele>
        <time>2023-04-13T11:32:47Z</time>
      </trkpt>
      <trkpt lat="48.53591" lon="-3.40091">
        <ele>144</ele>
        <time>2023-04-13T11:32:59Z</time>
      </trkpt>
      <trkpt lat="48.53618" lon="-3.40135">
        <ele>143</ele>
        <time>2023-04-13T11:33:52Z</time>
      </trkpt>
      <trkpt lat="48.53653" lon="-3.40165">
        <ele>141</ele>
        <time>2023-04-13T11:34:45Z</time>
      </trkpt>
      <trkpt lat="48.53663" lon="-3.40162">
        <ele>140</ele>
        <time>2023-04-13T11:34:59Z</time>
      </trkpt>
      <trkpt lat="48.5367" lon="-3.40156">
        <ele>140</ele>
        <time>2023-04-13T11:35:10Z</time>
      </trkpt>
      <trkpt lat="48.53694" lon="-3.40114">
        <ele>137</ele>
        <time>2023-04-13T11:35:59Z</time>
      </trkpt>
      <trkpt lat="48.53718" lon="-3.40086">
        <ele>135</ele>
        <time>2023-04-13T11:36:39Z</time>
      </trkpt>
      <trkpt lat="48.53732" lon="-3.40086">
        <ele>134</ele>
        <time>2023-04-13T11:36:58Z</time>
      </trkpt>
      <trkpt lat="48.53759" lon="-3.40114">
        <ele>130</ele>
        <time>2023-04-13T11:37:42Z</time>
      </trkpt>
      <trkpt lat="48.53769" lon="-3.40115">
        <ele>128</ele>
        <time>2023-04-13T11:37:55Z</time>
      </trkpt>
      <trkpt lat="48.53775" lon="-3.40108">
        <ele>127</ele>
        <time>2023-04-13T11:38:05Z</time>
      </trkpt>
      <trkpt lat="48.53777" lon="-3.40096">
        <ele>126</ele>
        <time>2023-04-13T11:38:16Z</time>
      </trkpt>
      <trkpt lat="48.5379" lon="-3.40048">
        <ele>123</ele>
        <time>2023-04-13T11:39:02Z</time>
      </trkpt>
      <trkpt lat="48.53789" lon="-3.40014">
        <ele>123</ele>
        <time>2023-04-13T11:39:32Z</time>
      </trkpt>
      <trkpt lat="48.5378" lon="-3.39983">
        <ele>123</ele>
        <time>2023-04-13T11:40:02Z</time>
      </trkpt>
      <trkpt lat="48.53782" lon="-3.39976">
        <ele>123</ele>
        <time>2023-04-13T11:40:09Z</time>
      </trkpt>
      <trkpt lat="48.53793" lon="-3.39969">
        <ele>121</ele>
        <time>2023-04-13T11:40:25Z</time>
      </trkpt>
      <trkpt lat="48.53819" lon="-3.39962">
        <ele>119</ele>
        <time>2023-04-13T11:41:00Z</time>
      </trkpt>
      <trkpt lat="48.53828" lon="-3.39969">
        <ele>118</ele>
        <time>2023-04-13T11:41:13Z</time>
      </trkpt>
      <trkpt lat="48.53837" lon="-3.39968">
        <ele>117</ele>
        <time>2023-04-13T11:41:25Z</time>
      </trkpt>
      <trkpt lat="48.53854" lon="-3.39955">
        <ele>116</ele>
        <time>2023-04-13T11:41:51Z</time>
      </trkpt>
      <trkpt lat="48.5386" lon="-3.39943">
        <ele>115</ele>
        <time>2023-04-13T11:42:04Z</time>
      </trkpt>
      <trkpt lat="48.53868" lon="-3.39939">
        <ele>114</ele>
        <time>2023-04-13T11:42:15Z</time>
      </trkpt>
      <trkpt lat="48.5388" lon="-3.39925">
        <ele>113</ele>
        <time>2023-04-13T11:42:36Z</time>
      </trkpt>
      <trkpt lat="48.53888" lon="-3.39911">
        <ele>111</ele>
        <time>2023-04-13T11:42:52Z</time>
      </trkpt>
      <trkpt lat="48.53905" lon="-3.39887">
        <ele>107</ele>
        <time>2023-04-13T11:43:23Z</time>
      </trkpt>
      <trkpt lat="48.53921" lon="-3.39851">
        <ele>102</ele>
        <time>2023-04-13T11:44:01Z</time>
      </trkpt>
      <trkpt lat="48.5395" lon="-3.3981">
        <ele>102</ele>
        <time>2023-04-13T11:44:54Z</time>
      </trkpt>
      <trkpt lat="48.53958" lon="-3.39801">
        <ele>102</ele>
        <time>2023-04-13T11:45:08Z</time>
      </trkpt>
      <trkpt lat="48.53982" lon="-3.39788">
        <ele>102</ele>
        <time>2023-04-13T11:45:42Z</time>
      </trkpt>
      <trkpt lat="48.54" lon="-3.39783">
        <ele>102</ele>
        <time>2023-04-13T11:46:06Z</time>
      </trkpt>
      <trkpt lat="48.54018" lon="-3.39784">
        <ele>103</ele>
        <time>2023-04-13T11:46:30Z</time>
      </trkpt>
      <trkpt lat="48.54041" lon="-3.39793">
        <ele>104</ele>
        <time>2023-04-13T11:47:02Z</time>
      </trkpt>
      <trkpt lat="48.54053" lon="-3.39794">
        <ele>104</ele>
        <time>2023-04-13T11:47:18Z</time>
      </trkpt>
      <trkpt lat="48.54086" lon="-3.39786">
        <ele>103</ele>
        <time>2023-04-13T11:48:02Z</time>
      </trkpt>
      <trkpt lat="48.54113" lon="-3.39783">
        <ele>102</ele>
        <time>2023-04-13T11:48:39Z</time>
      </trkpt>
      <trkpt lat="48.54123" lon="-3.39785">
        <ele>102</ele>
        <time>2023-04-13T11:48:52Z</time>
      </trkpt>
      <trkpt lat="48.5415" lon="-3.39802">
        <ele>104</ele>
        <time>2023-04-13T11:49:31Z</time>
      </trkpt>
      <trkpt lat="48.54171" lon="-3.39809">
        <ele>104</ele>
        <time>2023-04-13T11:50:00Z</time>
      </trkpt>
      <trkpt lat="48.54197" lon="-3.39801">
        <ele>102</ele>
        <time>2023-04-13T11:50:35Z</time>
      </trkpt>
      <trkpt lat="48.54231" lon="-3.39784">
        <ele>100</ele>
        <time>2023-04-13T11:51:23Z</time>
      </trkpt>
      <trkpt lat="48.54242" lon="-3.39786">
        <ele>100</ele>
        <time>2023-04-13T11:51:38Z</time>
      </trkpt>
      <trkpt lat="48.5426" lon="-3.39799">
        <ele>101</ele>
        <time>2023-04-13T11:52:04Z</time>
      </trkpt>
      <trkpt lat="48.54319" lon="-3.39773">
        <ele>98</ele>
        <time>2023-04-13T11:53:26Z</time>
      </trkpt>
      <trkpt lat="48.54324" lon="-3.39761">
        <ele>97</ele>
        <time>2023-04-13T11:53:39Z</time>
      </trkpt>
      <trkpt lat="48.54338" lon="-3.39766">
        <ele>97</ele>
        <time>2023-04-13T11:53:58Z</time>
      </trkpt>
      <trkpt lat="48.54412" lon="-3.39762">
        <ele>95</ele>
        <time>2023-04-13T11:55:37Z</time>
      </trkpt>
      <trkpt lat="48.54425" lon="-3.39766">
        <ele>95</ele>
        <time>2023-04-13T11:55:55Z</time>
      </trkpt>
      <trkpt lat="48.54449" lon="-3.39784">
        <ele>95</ele>
        <time>2023-04-13T11:56:30Z</time>
      </trkpt>
      <trkpt lat="48.54548" lon="-3.39874">
        <ele>96</ele>
        <time>2023-04-13T11:59:05Z</time>
      </trkpt>
      <trkpt lat="48.54593" lon="-3.3991">
        <ele>95</ele>
        <time>2023-04-13T12:00:13Z</time>
      </trkpt>
      <trkpt lat="48.54596" lon="-3.39904">
        <ele>94</ele>
        <time>2023-04-13T12:00:19Z</time>
      </trkpt>
      <trkpt lat="48.54599" lon="-3.39903">
        <ele>94</ele>
        <time>2023-04-13T12:00:23Z</time>
      </trkpt>
      <trkpt lat="48.54623" lon="-3.39914">
        <ele>94</ele>
        <time>2023-04-13T12:00:57Z</time>
      </trkpt>
      <trkpt lat="48.54637" lon="-3.39917">
        <ele>94</ele>
        <time>2023-04-13T12:01:16Z</time>
      </trkpt>
      <trkpt lat="48.54661" lon="-3.39904">
        <ele>93</ele>
        <time>2023-04-13T12:01:50Z</time>
      </trkpt>
      <trkpt lat="48.54697" lon="-3.39881">
        <ele>94</ele>
        <time>2023-04-13T12:02:42Z</time>
      </trkpt>
      <trkpt lat="48.5472" lon="-3.39859">
        <ele>94</ele>
        <time>2023-04-13T12:03:18Z</time>
      </trkpt>
      <trkpt lat="48.5472" lon="-3.39854">
        <ele>94</ele>
        <time>2023-04-13T12:03:23Z</time>
      </trkpt>
      <trkpt lat="48.54712" lon="-3.39838">
        <ele>92</ele>
        <time>2023-04-13T12:03:40Z</time>
      </trkpt>
      <trkpt lat="48.54723" lon="-3.39821">
        <ele>92</ele>
        <time>2023-04-13T12:04:01Z</time>
      </trkpt>
      <trkpt lat="48.54724" lon="-3.39809">
        <ele>91</ele>
        <time>2023-04-13T12:04:12Z</time>
      </trkpt>
      <trkpt lat="48.54736" lon="-3.39793">
        <ele>92</ele>
        <time>2023-04-13T12:04:33Z</time>
      </trkpt>
    </trkseg>
  </trk>
</gpx>